Date,TemperatureHighF,TemperatureAvgF,TemperatureLowF,DewpointHighF,DewpointAvgF,DewpointLowF,HumidityHigh,HumidityAvg,HumidityLow,PressureMaxIn,PressureMinIn,WindSpeedMaxMPH,WindSpeedAvgMPH,GustSpeedMaxMPH,PrecipitationSumIn
2013-1-1,38.1,31.0,27.7,37.9,27.3,22.6,99,86,77,30.13,29.88,15,6,15,0.02
2013-1-2,45.3,33.0,26.1,27.6,23.2,20.1,81,68,44,30.16,30.03,11,3,11,0.33
2013-1-3,45.5,30.6,21.9,28.3,21.0,15.4,88,69,41,30.30,30.15,12,2,12,0.20
2013-1-4,47.3,35.0,21.0,27.6,22.3,15.5,82,62,36,30.30,30.13,18,4,18,0.13
2013-1-5,52.3,40.5,30.0,35.0,30.1,21.5,86,67,43,30.14,29.99,20,6,20,0.39
2013-1-6,53.6,37.2,25.9,26.4,19.7,15.7,78,53,23,30.26,30.14,13,2,13,0.15
2013-1-7,53.1,38.4,21.0,32.0,23.2,13.6,76,56,28,30.17,29.93,18,4,18,0.01
2013-1-8,55.4,45.1,35.8,45.4,36.2,26.6,97,71,54,29.99,29.85,15,5,15,0.02
2013-1-9,50.9,47.5,46.2,50.6,47.2,45.4,99,99,95,30.13,29.92,18,8,18,0.32
2013-1-10,59.2,51.8,47.1,56.9,50.7,46.5,99,96,82,29.93,29.65,15,6,15,0.25
2013-1-11,71.4,56.8,46.4,53.2,47.1,43.6,98,73,42,29.71,29.53,27,10,27,0.00
2013-1-12,59.7,40.3,26.6,52.5,27.2,15.7,80,61,34,29.91,29.67,27,9,27,0.01
2013-1-13,34.2,25.1,18.5,16.1,10.4,5.2,65,54,33,30.19,29.85,21,7,21,0.01
2013-1-14,37.6,27.0,18.1,13.0,7.6,2.4,63,45,24,30.26,30.10,17,6,17,0.00
2013-1-15,36.1,27.0,20.1,16.3,12.8,7.8,74,56,35,30.13,30.02,13,4,13,0.00
2013-1-16,49.6,32.6,15.6,21.6,12.8,5.0,66,46,23,30.06,29.95,11,3,11,0.00
2013-1-17,38.7,36.1,33.6,26.5,24.9,23.4,68,64,60,29.93,29.92,4,1,4,0.00
2013-1-18,61.0,44.9,31.1,33.7,28.7,23.0,75,56,27,29.93,29.63,22,8,22,0.00
2013-1-19,66.6,48.6,36.7,37.6,34.2,28.9,82,60,32,29.66,29.54,21,6,21,0.01
2013-1-20,67.3,47.7,32.0,39.7,33.0,22.5,85,60,34,29.69,29.53,17,3,17,0.00
2013-1-21,45.1,33.5,24.3,22.5,13.4,9.1,64,45,23,29.85,29.69,19,6,19,0.02
2013-1-22,60.4,39.4,21.2,32.5,22.3,11.7,78,53,27,29.73,29.59,15,3,15,0.00
2013-1-23,72.1,50.5,30.7,51.8,41.5,28.3,97,74,42,29.69,29.54,13,2,13,0.00
2013-1-24,49.5,40.9,30.9,46.1,32.4,23.6,94,72,60,29.67,29.55,17,6,17,0.00
2013-1-25,47.1,36.1,27.0,35.1,29.1,22.0,91,76,60,29.69,29.56,12,4,12,0.00
2013-1-26,46.4,38.9,27.5,44.0,36.1,24.2,98,90,74,29.68,29.51,14,3,14,0.00
2013-1-27,67.6,55.4,43.3,58.6,51.8,42.8,99,89,70,29.52,29.30,19,9,19,0.00
2013-1-28,74.3,67.7,61.7,63.6,60.7,56.5,95,79,64,29.39,29.20,27,12,27,0.04
2013-1-29,69.3,59.2,40.5,63.2,55.2,37.1,98,87,68,29.21,28.91,23,8,23,0.37
2013-1-30,46.9,38.4,29.1,37.3,25.0,12.0,87,60,27,29.52,29.12,24,8,24,0.01
2013-1-31,62.6,40.8,25.7,29.5,20.1,9.7,64,46,21,29.85,29.48,22,8,22,0.00